sensor_id;sensor_type;location;lat;lon;timestamp;P1;durP1;ratioP1;P2;durP2;ratioP2
2706;SDS011;7819;48.046;7.642;2022-11-21T00:01:23;4.10;;;1.70;;
2706;SDS011;7819;48.046;7.642;2022-11-21T00:03:48;3.67;;;1.97;;
2706;SDS011;7819;48.046;7.642;2022-11-21T00:06:14;2.80;;;2.60;;
2706;SDS011;7819;48.046;7.642;2022-11-21T00:08:39;3.93;;;1.83;;
2706;SDS011;7819;48.046;7.642;2022-11-21T00:11:04;11.27;;;2.60;;
2706;SDS011;7819;48.046;7.642;2022-11-21T00:13:30;2.27;;;1.53;;
2706;SDS011;7819;48.046;7.642;2022-11-21T00:15:55;4.80;;;2.00;;
2706;SDS011;7819;48.046;7.642;2022-11-21T00:18:20;3.17;;;2.00;;
2706;SDS011;7819;48.046;7.642;2022-11-21T00:20:45;2.07;;;1.87;;
2706;SDS011;7819;48.046;7.642;2022-11-21T00:23:10;4.87;;;2.00;;
2706;SDS011;7819;48.046;7.642;2022-11-21T00:25:36;3.10;;;1.60;;
2706;SDS011;7819;48.046;7.642;2022-11-21T00:28:01;2.23;;;2.03;;
2706;SDS011;7819;48.046;7.642;2022-11-21T00:30:26;8.67;;;2.10;;
2706;SDS011;7819;48.046;7.642;2022-11-21T00:32:51;2.80;;;1.67;;
2706;SDS011;7819;48.046;7.642;2022-11-21T00:35:17;2.33;;;1.80;;
2706;SDS011;7819;48.046;7.642;2022-11-21T00:37:42;3.83;;;2.37;;
2706;SDS011;7819;48.046;7.642;2022-11-21T00:40:08;2.83;;;1.80;;
2706;SDS011;7819;48.046;7.642;2022-11-21T00:42:33;3.10;;;2.03;;
2706;SDS011;7819;48.046;7.642;2022-11-21T00:44:58;5.50;;;2.20;;
2706;SDS011;7819;48.046;7.642;2022-11-21T00:47:23;4.47;;;2.50;;
2706;SDS011;7819;48.046;7.642;2022-11-21T00:49:48;2.17;;;1.97;;
2706;SDS011;7819;48.046;7.642;2022-11-21T00:52:14;2.97;;;2.07;;
2706;SDS011;7819;48.046;7.642;2022-11-21T00:54:40;2.80;;;1.77;;
2706;SDS011;7819;48.046;7.642;2022-11-21T00:57:05;5.67;;;1.90;;
2706;SDS011;7819;48.046;7.642;2022-11-21T00:59:30;4.40;;;2.43;;
2706;SDS011;7819;48.046;7.642;2022-11-21T01:01:55;5.87;;;2.00;;
2706;SDS011;7819;48.046;7.642;2022-11-21T01:04:20;2.20;;;2.00;;
2706;SDS011;7819;48.046;7.642;2022-11-21T01:06:46;4.83;;;2.20;;
2706;SDS011;7819;48.046;7.642;2022-11-21T01:09:11;4.20;;;2.03;;
2706;SDS011;7819;48.046;7.642;2022-11-21T01:11:36;5.93;;;2.43;;
2706;SDS011;7819;48.046;7.642;2022-11-21T01:14:01;7.50;;;2.47;;
2706;SDS011;7819;48.046;7.642;2022-11-21T01:16:27;6.87;;;2.30;;
2706;SDS011;7819;48.046;7.642;2022-11-21T01:18:53;3.93;;;1.77;;
2706;SDS011;7819;48.046;7.642;2022-11-21T01:21:19;10.03;;;2.37;;
2706;SDS011;7819;48.046;7.642;2022-11-21T01:23:45;5.53;;;2.47;;
2706;SDS011;7819;48.046;7.642;2022-11-21T01:26:11;3.03;;;1.70;;
2706;SDS011;7819;48.046;7.642;2022-11-21T01:28:38;2.47;;;2.20;;
2706;SDS011;7819;48.046;7.642;2022-11-21T01:31:07;4.37;;;1.70;;
2706;SDS011;7819;48.046;7.642;2022-11-21T01:33:33;5.03;;;2.20;;
2706;SDS011;7819;48.046;7.642;2022-11-21T01:38:32;6.77;;;2.10;;
2706;SDS011;7819;48.046;7.642;2022-11-21T01:40:58;2.50;;;2.00;;
2706;SDS011;7819;48.046;7.642;2022-11-21T01:43:23;2.00;;;1.80;;
2706;SDS011;7819;48.046;7.642;2022-11-21T01:45:58;3.90;;;2.10;;
2706;SDS011;7819;48.046;7.642;2022-11-21T01:48:45;1.90;;;1.80;;
2706;SDS011;7819;48.046;7.642;2022-11-21T01:51:20;6.03;;;2.03;;
2706;SDS011;7819;48.046;7.642;2022-11-21T01:53:51;2.80;;;1.97;;
2706;SDS011;7819;48.046;7.642;2022-11-21T01:56:17;2.53;;;1.90;;
2706;SDS011;7819;48.046;7.642;2022-11-21T01:58:43;3.10;;;2.50;;
2706;SDS011;7819;48.046;7.642;2022-11-21T02:01:08;5.73;;;1.97;;
2706;SDS011;7819;48.046;7.642;2022-11-21T02:03:35;5.87;;;2.50;;
2706;SDS011;7819;48.046;7.642;2022-11-21T02:06:01;4.10;;;1.70;;
2706;SDS011;7819;48.046;7.642;2022-11-21T02:08:27;3.27;;;2.20;;
2706;SDS011;7819;48.046;7.642;2022-11-21T02:10:58;5.73;;;1.93;;
2706;SDS011;7819;48.046;7.642;2022-11-21T02:13:24;2.87;;;1.67;;
2706;SDS011;7819;48.046;7.642;2022-11-21T02:15:50;4.60;;;1.97;;
2706;SDS011;7819;48.046;7.642;2022-11-21T02:18:15;5.23;;;1.93;;
2706;SDS011;7819;48.046;7.642;2022-11-21T02:20:40;8.80;;;1.80;;
2706;SDS011;7819;48.046;7.642;2022-11-21T02:23:21;2.33;;;1.43;;
2706;SDS011;7819;48.046;7.642;2022-11-21T02:25:48;2.07;;;1.40;;
2706;SDS011;7819;48.046;7.642;2022-11-21T02:28:15;2.73;;;1.70;;
2706;SDS011;7819;48.046;7.642;2022-11-21T02:30:41;7.10;;;1.93;;
2706;SDS011;7819;48.046;7.642;2022-11-21T02:33:06;5.43;;;1.87;;
2706;SDS011;7819;48.046;7.642;2022-11-21T02:35:31;4.83;;;2.13;;
2706;SDS011;7819;48.046;7.642;2022-11-21T02:40:30;3.10;;;1.90;;
2706;SDS011;7819;48.046;7.642;2022-11-21T02:45:32;6.40;;;2.17;;
2706;SDS011;7819;48.046;7.642;2022-11-21T02:47:59;5.93;;;2.10;;
2706;SDS011;7819;48.046;7.642;2022-11-21T02:50:26;3.17;;;1.70;;
2706;SDS011;7819;48.046;7.642;2022-11-21T02:52:51;4.83;;;1.67;;
2706;SDS011;7819;48.046;7.642;2022-11-21T02:55:17;3.93;;;1.73;;
2706;SDS011;7819;48.046;7.642;2022-11-21T02:57:42;3.43;;;2.20;;
2706;SDS011;7819;48.046;7.642;2022-11-21T03:00:07;2.40;;;1.77;;
2706;SDS011;7819;48.046;7.642;2022-11-21T03:02:33;3.70;;;2.10;;
2706;SDS011;7819;48.046;7.642;2022-11-21T03:04:58;6.77;;;2.40;;
2706;SDS011;7819;48.046;7.642;2022-11-21T03:07:24;4.63;;;1.40;;
2706;SDS011;7819;48.046;7.642;2022-11-21T03:09:49;2.87;;;2.07;;
2706;SDS011;7819;48.046;7.642;2022-11-21T03:12:14;4.57;;;1.70;;
2706;SDS011;7819;48.046;7.642;2022-11-21T03:14:39;6.70;;;2.03;;
2706;SDS011;7819;48.046;7.642;2022-11-21T03:17:05;5.23;;;1.90;;
2706;SDS011;7819;48.046;7.642;2022-11-21T03:19:30;4.13;;;1.80;;
2706;SDS011;7819;48.046;7.642;2022-11-21T03:21:55;4.60;;;2.17;;
2706;SDS011;7819;48.046;7.642;2022-11-21T03:24:20;2.70;;;1.73;;
2706;SDS011;7819;48.046;7.642;2022-11-21T03:26:46;2.80;;;1.70;;
2706;SDS011;7819;48.046;7.642;2022-11-21T03:29:11;4.73;;;1.80;;
2706;SDS011;7819;48.046;7.642;2022-11-21T03:31:36;3.00;;;1.60;;
2706;SDS011;7819;48.046;7.642;2022-11-21T03:34:01;1.30;;;1.10;;
2706;SDS011;7819;48.046;7.642;2022-11-21T03:36:27;2.80;;;1.73;;
2706;SDS011;7819;48.046;7.642;2022-11-21T03:38:53;1.97;;;1.50;;
2706;SDS011;7819;48.046;7.642;2022-11-21T03:41:19;7.33;;;2.43;;
2706;SDS011;7819;48.046;7.642;2022-11-21T03:43:54;3.00;;;1.60;;
2706;SDS011;7819;48.046;7.642;2022-11-21T03:46:19;2.03;;;1.20;;
2706;SDS011;7819;48.046;7.642;2022-11-21T03:48:44;4.20;;;1.90;;
2706;SDS011;7819;48.046;7.642;2022-11-21T03:51:09;2.53;;;1.50;;
2706;SDS011;7819;48.046;7.642;2022-11-21T03:53:34;2.00;;;1.27;;
2706;SDS011;7819;48.046;7.642;2022-11-21T03:56:00;2.77;;;1.60;;
2706;SDS011;7819;48.046;7.642;2022-11-21T03:58:25;3.37;;;1.53;;
2706;SDS011;7819;48.046;7.642;2022-11-21T04:00:50;3.83;;;1.50;;
2706;SDS011;7819;48.046;7.642;2022-11-21T04:03:15;3.33;;;1.70;;
2706;SDS011;7819;48.046;7.642;2022-11-21T04:05:42;3.20;;;1.40;;
2706;SDS011;7819;48.046;7.642;2022-11-21T04:08:08;2.40;;;1.30;;
2706;SDS011;7819;48.046;7.642;2022-11-21T04:10:33;4.07;;;1.40;;
2706;SDS011;7819;48.046;7.642;2022-11-21T04:12:58;3.07;;;1.40;;
2706;SDS011;7819;48.046;7.642;2022-11-21T04:15:23;2.80;;;1.40;;
2706;SDS011;7819;48.046;7.642;2022-11-21T04:17:48;2.80;;;1.90;;
2706;SDS011;7819;48.046;7.642;2022-11-21T04:20:14;5.80;;;2.37;;
2706;SDS011;7819;48.046;7.642;2022-11-21T04:22:39;4.30;;;2.00;;
2706;SDS011;7819;48.046;7.642;2022-11-21T04:25:04;2.17;;;1.50;;
2706;SDS011;7819;48.046;7.642;2022-11-21T04:27:30;3.73;;;1.60;;
2706;SDS011;7819;48.046;7.642;2022-11-21T04:29:55;3.43;;;1.93;;
2706;SDS011;7819;48.046;7.642;2022-11-21T04:32:20;1.80;;;1.70;;
2706;SDS011;7819;48.046;7.642;2022-11-21T04:34:45;3.10;;;2.10;;
2706;SDS011;7819;48.046;7.642;2022-11-21T04:37:10;4.63;;;1.77;;
2706;SDS011;7819;48.046;7.642;2022-11-21T04:39:35;5.23;;;2.00;;
2706;SDS011;7819;48.046;7.642;2022-11-21T04:42:01;2.60;;;2.40;;
2706;SDS011;7819;48.046;7.642;2022-11-21T04:44:26;5.70;;;1.73;;
2706;SDS011;7819;48.046;7.642;2022-11-21T04:46:52;2.50;;;1.80;;
2706;SDS011;7819;48.046;7.642;2022-11-21T04:49:17;2.40;;;2.10;;
2706;SDS011;7819;48.046;7.642;2022-11-21T04:51:42;1.73;;;1.63;;
2706;SDS011;7819;48.046;7.642;2022-11-21T04:54:09;2.00;;;1.80;;
2706;SDS011;7819;48.046;7.642;2022-11-21T04:56:35;2.63;;;2.37;;
2706;SDS011;7819;48.046;7.642;2022-11-21T04:59:00;5.93;;;1.97;;
2706;SDS011;7819;48.046;7.642;2022-11-21T05:01:25;6.70;;;2.87;;
2706;SDS011;7819;48.046;7.642;2022-11-21T05:03:51;3.77;;;2.13;;
2706;SDS011;7819;48.046;7.642;2022-11-21T05:06:16;3.17;;;1.90;;
2706;SDS011;7819;48.046;7.642;2022-11-21T05:08:41;4.60;;;1.90;;
2706;SDS011;7819;48.046;7.642;2022-11-21T05:11:06;6.53;;;2.87;;
2706;SDS011;7819;48.046;7.642;2022-11-21T05:13:51;5.83;;;1.97;;
2706;SDS011;7819;48.046;7.642;2022-11-21T05:16:16;2.80;;;2.60;;
2706;SDS011;7819;48.046;7.642;2022-11-21T05:18:41;5.77;;;2.73;;
2706;SDS011;7819;48.046;7.642;2022-11-21T05:21:07;7.73;;;2.40;;
2706;SDS011;7819;48.046;7.642;2022-11-21T05:23:32;2.53;;;2.33;;
2706;SDS011;7819;48.046;7.642;2022-11-21T05:25:57;12.43;;;2.77;;
2706;SDS011;7819;48.046;7.642;2022-11-21T05:28:22;5.73;;;3.13;;
2706;SDS011;7819;48.046;7.642;2022-11-21T05:30:47;3.40;;;3.10;;
2706;SDS011;7819;48.046;7.642;2022-11-21T05:33:13;6.53;;;5.60;;
2706;SDS011;7819;48.046;7.642;2022-11-21T05:35:38;5.00;;;2.87;;
2706;SDS011;7819;48.046;7.642;2022-11-21T05:38:03;6.60;;;4.00;;
2706;SDS011;7819;48.046;7.642;2022-11-21T05:40:28;7.13;;;4.70;;
2706;SDS011;7819;48.046;7.642;2022-11-21T05:42:53;8.83;;;3.83;;
2706;SDS011;7819;48.046;7.642;2022-11-21T05:45:37;3.63;;;3.00;;
2706;SDS011;7819;48.046;7.642;2022-11-21T05:48:02;11.80;;;3.60;;
2706;SDS011;7819;48.046;7.642;2022-11-21T05:50:31;2.80;;;2.37;;
2706;SDS011;7819;48.046;7.642;2022-11-21T05:52:59;3.60;;;2.67;;
2706;SDS011;7819;48.046;7.642;2022-11-21T05:55:24;3.13;;;2.80;;
2706;SDS011;7819;48.046;7.642;2022-11-21T05:57:49;6.40;;;2.80;;
2706;SDS011;7819;48.046;7.642;2022-11-21T06:00:15;3.87;;;2.60;;
2706;SDS011;7819;48.046;7.642;2022-11-21T06:02:40;2.47;;;2.27;;
2706;SDS011;7819;48.046;7.642;2022-11-21T06:05:24;4.13;;;2.30;;
2706;SDS011;7819;48.046;7.642;2022-11-21T06:07:49;2.77;;;2.13;;
2706;SDS011;7819;48.046;7.642;2022-11-21T06:10:14;13.20;;;3.30;;
2706;SDS011;7819;48.046;7.642;2022-11-21T06:12:40;4.80;;;2.10;;
2706;SDS011;7819;48.046;7.642;2022-11-21T06:15:05;2.90;;;2.00;;
2706;SDS011;7819;48.046;7.642;2022-11-21T06:17:30;5.23;;;3.00;;
2706;SDS011;7819;48.046;7.642;2022-11-21T06:19:56;2.77;;;2.00;;
2706;SDS011;7819;48.046;7.642;2022-11-21T06:22:21;7.80;;;1.93;;
2706;SDS011;7819;48.046;7.642;2022-11-21T06:24:46;3.30;;;2.17;;
2706;SDS011;7819;48.046;7.642;2022-11-21T06:27:11;2.83;;;2.63;;
2706;SDS011;7819;48.046;7.642;2022-11-21T06:29:36;2.10;;;1.70;;
2706;SDS011;7819;48.046;7.642;2022-11-21T06:32:02;2.20;;;1.73;;
2706;SDS011;7819;48.046;7.642;2022-11-21T06:34:27;4.77;;;2.13;;
2706;SDS011;7819;48.046;7.642;2022-11-21T06:36:52;3.00;;;2.03;;
2706;SDS011;7819;48.046;7.642;2022-11-21T06:39:18;2.60;;;2.20;;
2706;SDS011;7819;48.046;7.642;2022-11-21T06:41:43;5.50;;;2.00;;
2706;SDS011;7819;48.046;7.642;2022-11-21T06:44:14;3.50;;;1.70;;
2706;SDS011;7819;48.046;7.642;2022-11-21T06:46:39;3.03;;;2.77;;
2706;SDS011;7819;48.046;7.642;2022-11-21T06:49:05;3.07;;;2.73;;
2706;SDS011;7819;48.046;7.642;2022-11-21T06:51:30;6.77;;;4.17;;
2706;SDS011;7819;48.046;7.642;2022-11-21T06:53:56;4.73;;;4.33;;
2706;SDS011;7819;48.046;7.642;2022-11-21T06:56:23;4.10;;;3.30;;
2706;SDS011;7819;48.046;7.642;2022-11-21T06:58:48;9.80;;;5.80;;
2706;SDS011;7819;48.046;7.642;2022-11-21T07:01:13;5.20;;;4.73;;
2706;SDS011;7819;48.046;7.642;2022-11-21T07:03:38;2.67;;;2.00;;
2706;SDS011;7819;48.046;7.642;2022-11-21T07:06:04;3.90;;;2.23;;
2706;SDS011;7819;48.046;7.642;2022-11-21T07:08:31;6.03;;;3.60;;
2706;SDS011;7819;48.046;7.642;2022-11-21T07:11:00;14.67;;;6.40;;
2706;SDS011;7819;48.046;7.642;2022-11-21T07:13:25;19.60;;;10.13;;
2706;SDS011;7819;48.046;7.642;2022-11-21T07:15:52;21.83;;;12.90;;
2706;SDS011;7819;48.046;7.642;2022-11-21T07:18:18;18.30;;;10.70;;
2706;SDS011;7819;48.046;7.642;2022-11-21T07:20:44;26.50;;;13.13;;
2706;SDS011;7819;48.046;7.642;2022-11-21T07:23:09;8.13;;;4.73;;
2706;SDS011;7819;48.046;7.642;2022-11-21T07:25:34;5.77;;;3.10;;
2706;SDS011;7819;48.046;7.642;2022-11-21T07:28:00;6.73;;;2.37;;
2706;SDS011;7819;48.046;7.642;2022-11-21T07:30:26;3.23;;;2.67;;
2706;SDS011;7819;48.046;7.642;2022-11-21T07:32:58;5.87;;;2.17;;
2706;SDS011;7819;48.046;7.642;2022-11-21T07:35:23;2.53;;;2.30;;
2706;SDS011;7819;48.046;7.642;2022-11-21T07:37:49;6.33;;;2.77;;
2706;SDS011;7819;48.046;7.642;2022-11-21T07:40:14;4.37;;;2.20;;
2706;SDS011;7819;48.046;7.642;2022-11-21T07:42:39;4.63;;;2.30;;
2706;SDS011;7819;48.046;7.642;2022-11-21T07:45:05;3.77;;;2.73;;
2706;SDS011;7819;48.046;7.642;2022-11-21T07:47:30;4.53;;;2.87;;
2706;SDS011;7819;48.046;7.642;2022-11-21T07:49:55;3.47;;;2.33;;
2706;SDS011;7819;48.046;7.642;2022-11-21T07:52:20;4.10;;;3.10;;
2706;SDS011;7819;48.046;7.642;2022-11-21T07:54:46;2.70;;;1.80;;
2706;SDS011;7819;48.046;7.642;2022-11-21T07:57:11;5.47;;;1.87;;
2706;SDS011;7819;48.046;7.642;2022-11-21T07:59:36;4.43;;;2.60;;
2706;SDS011;7819;48.046;7.642;2022-11-21T08:02:02;7.10;;;2.13;;
2706;SDS011;7819;48.046;7.642;2022-11-21T08:04:27;6.00;;;3.07;;
2706;SDS011;7819;48.046;7.642;2022-11-21T08:06:52;3.77;;;2.23;;
2706;SDS011;7819;48.046;7.642;2022-11-21T08:09:18;3.93;;;2.20;;
2706;SDS011;7819;48.046;7.642;2022-11-21T08:11:43;6.37;;;2.27;;
2706;SDS011;7819;48.046;7.642;2022-11-21T08:14:08;7.90;;;3.10;;
2706;SDS011;7819;48.046;7.642;2022-11-21T08:16:33;4.70;;;1.97;;
2706;SDS011;7819;48.046;7.642;2022-11-21T08:18:58;4.43;;;2.30;;
2706;SDS011;7819;48.046;7.642;2022-11-21T08:21:24;6.33;;;2.40;;
2706;SDS011;7819;48.046;7.642;2022-11-21T08:23:49;5.57;;;2.47;;
2706;SDS011;7819;48.046;7.642;2022-11-21T08:26:15;5.43;;;2.27;;
2706;SDS011;7819;48.046;7.642;2022-11-21T08:28:40;4.53;;;1.93;;
2706;SDS011;7819;48.046;7.642;2022-11-21T08:31:05;9.27;;;3.00;;
2706;SDS011;7819;48.046;7.642;2022-11-21T08:33:31;7.70;;;2.40;;
2706;SDS011;7819;48.046;7.642;2022-11-21T08:35:56;10.03;;;2.10;;
2706;SDS011;7819;48.046;7.642;2022-11-21T08:38:21;8.10;;;2.70;;
2706;SDS011;7819;48.046;7.642;2022-11-21T08:40:46;4.13;;;2.27;;
2706;SDS011;7819;48.046;7.642;2022-11-21T08:43:31;3.63;;;2.07;;
2706;SDS011;7819;48.046;7.642;2022-11-21T08:45:56;7.50;;;2.67;;
2706;SDS011;7819;48.046;7.642;2022-11-21T08:48:22;8.40;;;2.20;;
2706;SDS011;7819;48.046;7.642;2022-11-21T08:50:47;4.27;;;2.07;;
2706;SDS011;7819;48.046;7.642;2022-11-21T08:53:12;7.37;;;2.10;;
2706;SDS011;7819;48.046;7.642;2022-11-21T08:55:37;8.13;;;2.33;;
2706;SDS011;7819;48.046;7.642;2022-11-21T08:58:02;5.73;;;2.30;;
2706;SDS011;7819;48.046;7.642;2022-11-21T09:00:28;4.20;;;1.80;;
2706;SDS011;7819;48.046;7.642;2022-11-21T09:02:53;5.23;;;4.57;;
2706;SDS011;7819;48.046;7.642;2022-11-21T09:05:18;4.80;;;2.00;;
2706;SDS011;7819;48.046;7.642;2022-11-21T09:07:43;5.50;;;2.07;;
2706;SDS011;7819;48.046;7.642;2022-11-21T09:10:09;5.13;;;2.50;;
2706;SDS011;7819;48.046;7.642;2022-11-21T09:12:34;5.07;;;1.90;;
2706;SDS011;7819;48.046;7.642;2022-11-21T09:14:59;6.90;;;2.10;;
2706;SDS011;7819;48.046;7.642;2022-11-21T09:17:43;9.23;;;2.60;;
2706;SDS011;7819;48.046;7.642;2022-11-21T09:20:27;5.17;;;3.80;;
2706;SDS011;7819;48.046;7.642;2022-11-21T09:22:52;4.00;;;2.00;;
2706;SDS011;7819;48.046;7.642;2022-11-21T09:25:17;5.47;;;2.03;;
2706;SDS011;7819;48.046;7.642;2022-11-21T09:27:43;7.23;;;1.90;;
2706;SDS011;7819;48.046;7.642;2022-11-21T09:30:08;4.47;;;1.60;;
2706;SDS011;7819;48.046;7.642;2022-11-21T09:32:33;5.43;;;3.87;;
2706;SDS011;7819;48.046;7.642;2022-11-21T09:34:58;7.37;;;2.10;;
2706;SDS011;7819;48.046;7.642;2022-11-21T09:37:24;6.40;;;1.50;;
2706;SDS011;7819;48.046;7.642;2022-11-21T09:39:49;9.37;;;2.33;;
2706;SDS011;7819;48.046;7.642;2022-11-21T09:49:50;10.60;;;2.03;;
2706;SDS011;7819;48.046;7.642;2022-11-21T09:52:16;5.90;;;1.50;;
2706;SDS011;7819;48.046;7.642;2022-11-21T09:54:47;7.90;;;1.90;;
2706;SDS011;7819;48.046;7.642;2022-11-21T09:57:14;5.43;;;1.77;;
2706;SDS011;7819;48.046;7.642;2022-11-21T09:59:40;5.37;;;1.90;;
2706;SDS011;7819;48.046;7.642;2022-11-21T10:02:13;7.07;;;1.97;;
2706;SDS011;7819;48.046;7.642;2022-11-21T10:04:39;8.00;;;2.20;;
2706;SDS011;7819;48.046;7.642;2022-11-21T10:07:05;6.80;;;1.50;;
2706;SDS011;7819;48.046;7.642;2022-11-21T10:15:04;4.63;;;2.10;;
2706;SDS011;7819;48.046;7.642;2022-11-21T10:25:25;3.63;;;1.83;;
2706;SDS011;7819;48.046;7.642;2022-11-21T10:28:01;11.00;;;2.67;;
2706;SDS011;7819;48.046;7.642;2022-11-21T10:30:28;11.10;;;1.83;;
2706;SDS011;7819;48.046;7.642;2022-11-21T10:33:03;5.33;;;2.00;;
2706;SDS011;7819;48.046;7.642;2022-11-21T10:35:37;5.00;;;1.50;;
2706;SDS011;7819;48.046;7.642;2022-11-21T10:38:20;3.30;;;1.80;;
2706;SDS011;7819;48.046;7.642;2022-11-21T10:40:46;5.23;;;1.90;;
2706;SDS011;7819;48.046;7.642;2022-11-21T10:46:00;6.57;;;2.30;;
2706;SDS011;7819;48.046;7.642;2022-11-21T10:48:25;4.23;;;2.00;;
2706;SDS011;7819;48.046;7.642;2022-11-21T10:56:12;10.00;;;2.27;;
2706;SDS011;7819;48.046;7.642;2022-11-21T10:58:40;5.37;;;2.40;;
2706;SDS011;7819;48.046;7.642;2022-11-21T11:01:16;7.20;;;2.40;;
2706;SDS011;7819;48.046;7.642;2022-11-21T11:03:42;7.93;;;1.60;;
2706;SDS011;7819;48.046;7.642;2022-11-21T11:06:09;5.97;;;2.47;;
2706;SDS011;7819;48.046;7.642;2022-11-21T11:08:52;8.00;;;2.07;;
2706;SDS011;7819;48.046;7.642;2022-11-21T11:11:21;7.10;;;1.60;;
2706;SDS011;7819;48.046;7.642;2022-11-21T11:14:05;9.77;;;2.30;;
2706;SDS011;7819;48.046;7.642;2022-11-21T11:16:36;7.23;;;2.50;;
2706;SDS011;7819;48.046;7.642;2022-11-21T11:19:04;5.20;;;2.70;;
2706;SDS011;7819;48.046;7.642;2022-11-21T11:24:05;3.70;;;2.10;;
2706;SDS011;7819;48.046;7.642;2022-11-21T11:26:32;7.73;;;2.10;;
2706;SDS011;7819;48.046;7.642;2022-11-21T11:31:39;7.13;;;2.20;;
2706;SDS011;7819;48.046;7.642;2022-11-21T11:34:04;5.17;;;1.80;;
2706;SDS011;7819;48.046;7.642;2022-11-21T11:36:36;3.43;;;1.53;;
2706;SDS011;7819;48.046;7.642;2022-11-21T11:39:48;8.20;;;2.10;;
2706;SDS011;7819;48.046;7.642;2022-11-21T11:42:14;4.83;;;2.33;;
2706;SDS011;7819;48.046;7.642;2022-11-21T11:45:13;10.40;;;2.20;;
2706;SDS011;7819;48.046;7.642;2022-11-21T11:47:58;7.83;;;2.77;;
2706;SDS011;7819;48.046;7.642;2022-11-21T11:50:26;4.10;;;1.70;;
2706;SDS011;7819;48.046;7.642;2022-11-21T11:55:19;5.20;;;1.73;;
2706;SDS011;7819;48.046;7.642;2022-11-21T11:57:46;4.67;;;1.77;;
2706;SDS011;7819;48.046;7.642;2022-11-21T12:03:05;8.63;;;2.00;;
2706;SDS011;7819;48.046;7.642;2022-11-21T12:05:32;4.40;;;1.50;;
2706;SDS011;7819;48.046;7.642;2022-11-21T12:08:02;8.97;;;2.43;;
2706;SDS011;7819;48.046;7.642;2022-11-21T12:13:38;10.20;;;4.43;;
2706;SDS011;7819;48.046;7.642;2022-11-21T12:16:04;3.83;;;1.77;;
2706;SDS011;7819;48.046;7.642;2022-11-21T12:18:49;7.47;;;1.90;;
2706;SDS011;7819;48.046;7.642;2022-11-21T12:21:16;5.60;;;1.80;;
2706;SDS011;7819;48.046;7.642;2022-11-21T12:23:54;3.83;;;1.77;;
2706;SDS011;7819;48.046;7.642;2022-11-21T12:26:31;6.40;;;1.63;;
2706;SDS011;7819;48.046;7.642;2022-11-21T12:29:01;6.87;;;1.60;;
2706;SDS011;7819;48.046;7.642;2022-11-21T12:34:09;5.68;;;2.63;;
2706;SDS011;7819;48.046;7.642;2022-11-21T12:36:41;3.73;;;1.20;;
2706;SDS011;7819;48.046;7.642;2022-11-21T12:42:10;4.97;;;1.87;;
2706;SDS011;7819;48.046;7.642;2022-11-21T12:50:31;3.57;;;1.50;;
2706;SDS011;7819;48.046;7.642;2022-11-21T12:53:32;4.03;;;1.60;;
2706;SDS011;7819;48.046;7.642;2022-11-21T12:56:31;4.20;;;1.77;;
2706;SDS011;7819;48.046;7.642;2022-11-21T12:58:59;6.00;;;1.70;;
2706;SDS011;7819;48.046;7.642;2022-11-21T13:01:34;2.93;;;1.50;;
2706;SDS011;7819;48.046;7.642;2022-11-21T13:04:03;3.60;;;1.80;;
2706;SDS011;7819;48.046;7.642;2022-11-21T13:06:30;3.57;;;1.50;;
2706;SDS011;7819;48.046;7.642;2022-11-21T13:08:57;7.57;;;2.10;;
2706;SDS011;7819;48.046;7.642;2022-11-21T13:16:32;5.38;;;3.40;;
2706;SDS011;7819;48.046;7.642;2022-11-21T13:19:18;3.23;;;2.57;;
2706;SDS011;7819;48.046;7.642;2022-11-21T13:21:47;6.03;;;1.90;;
2706;SDS011;7819;48.046;7.642;2022-11-21T13:24:59;4.67;;;2.00;;
2706;SDS011;7819;48.046;7.642;2022-11-21T13:26:59;6.47;;;2.00;;
2706;SDS011;7819;48.046;7.642;2022-11-21T13:29:24;4.60;;;2.00;;
2706;SDS011;7819;48.046;7.642;2022-11-21T13:31:49;5.30;;;2.33;;
2706;SDS011;7819;48.046;7.642;2022-11-21T13:36:54;11.50;;;4.37;;
2706;SDS011;7819;48.046;7.642;2022-11-21T13:39:24;6.80;;;3.77;;
2706;SDS011;7819;48.046;7.642;2022-11-21T13:44:39;4.97;;;2.80;;
2706;SDS011;7819;48.046;7.642;2022-11-21T13:47:10;4.20;;;3.10;;
2706;SDS011;7819;48.046;7.642;2022-11-21T13:49:43;4.07;;;1.90;;
2706;SDS011;7819;48.046;7.642;2022-11-21T13:52:19;4.30;;;2.37;;
2706;SDS011;7819;48.046;7.642;2022-11-21T14:00:17;4.83;;;2.10;;
2706;SDS011;7819;48.046;7.642;2022-11-21T14:02:52;3.60;;;1.90;;
2706;SDS011;7819;48.046;7.642;2022-11-21T14:05:30;4.63;;;2.40;;
2706;SDS011;7819;48.046;7.642;2022-11-21T14:08:10;7.87;;;4.83;;
2706;SDS011;7819;48.046;7.642;2022-11-21T14:10:35;25.47;;;20.60;;
2706;SDS011;7819;48.046;7.642;2022-11-21T14:13:01;14.20;;;11.47;;
2706;SDS011;7819;48.046;7.642;2022-11-21T14:15:37;10.40;;;6.23;;
2706;SDS011;7819;48.046;7.642;2022-11-21T14:18:03;5.03;;;1.60;;
2706;SDS011;7819;48.046;7.642;2022-11-21T14:20:33;5.80;;;3.00;;
2706;SDS011;7819;48.046;7.642;2022-11-21T14:23:04;31.00;;;17.77;;
2706;SDS011;7819;48.046;7.642;2022-11-21T14:27:55;9.43;;;2.75;;
2706;SDS011;7819;48.046;7.642;2022-11-21T14:32:55;2.60;;;1.60;;
2706;SDS011;7819;48.046;7.642;2022-11-21T14:35:21;5.60;;;2.03;;
2706;SDS011;7819;48.046;7.642;2022-11-21T14:37:46;3.37;;;1.40;;
2706;SDS011;7819;48.046;7.642;2022-11-21T14:40:14;5.93;;;2.23;;
2706;SDS011;7819;48.046;7.642;2022-11-21T14:42:43;6.33;;;2.60;;
2706;SDS011;7819;48.046;7.642;2022-11-21T14:45:17;5.00;;;3.17;;
2706;SDS011;7819;48.046;7.642;2022-11-21T14:47:47;6.07;;;3.30;;
2706;SDS011;7819;48.046;7.642;2022-11-21T14:50:26;3.27;;;1.50;;
2706;SDS011;7819;48.046;7.642;2022-11-21T14:52:52;9.03;;;1.53;;
2706;SDS011;7819;48.046;7.642;2022-11-21T14:55:28;4.03;;;2.60;;
2706;SDS011;7819;48.046;7.642;2022-11-21T14:57:53;4.33;;;1.70;;
2706;SDS011;7819;48.046;7.642;2022-11-21T15:00:20;4.20;;;1.67;;
2706;SDS011;7819;48.046;7.642;2022-11-21T15:02:45;2.00;;;1.17;;
2706;SDS011;7819;48.046;7.642;2022-11-21T15:05:14;3.97;;;1.27;;
2706;SDS011;7819;48.046;7.642;2022-11-21T15:07:40;5.50;;;3.43;;
2706;SDS011;7819;48.046;7.642;2022-11-21T15:10:07;7.63;;;6.83;;
2706;SDS011;7819;48.046;7.642;2022-11-21T15:12:35;5.00;;;2.10;;
2706;SDS011;7819;48.046;7.642;2022-11-21T15:15:03;2.80;;;2.07;;
2706;SDS011;7819;48.046;7.642;2022-11-21T15:17:30;4.33;;;3.10;;
2706;SDS011;7819;48.046;7.642;2022-11-21T15:22:36;3.20;;;1.30;;
2706;SDS011;7819;48.046;7.642;2022-11-21T15:25:13;3.20;;;1.57;;
2706;SDS011;7819;48.046;7.642;2022-11-21T15:27:42;3.00;;;1.60;;
2706;SDS011;7819;48.046;7.642;2022-11-21T15:38:15;11.37;;;5.20;;
2706;SDS011;7819;48.046;7.642;2022-11-21T15:40:53;3.93;;;3.20;;
2706;SDS011;7819;48.046;7.642;2022-11-21T15:43:31;5.27;;;2.53;;
2706;SDS011;7819;48.046;7.642;2022-11-21T15:45:59;5.07;;;1.20;;
2706;SDS011;7819;48.046;7.642;2022-11-21T15:48:25;13.73;;;5.93;;
2706;SDS011;7819;48.046;7.642;2022-11-21T15:50:50;42.13;;;32.03;;
2706;SDS011;7819;48.046;7.642;2022-11-21T15:53:16;41.57;;;31.90;;
2706;SDS011;7819;48.046;7.642;2022-11-21T15:55:41;31.87;;;22.90;;
2706;SDS011;7819;48.046;7.642;2022-11-21T15:58:07;10.20;;;7.37;;
2706;SDS011;7819;48.046;7.642;2022-11-21T16:00:32;5.47;;;3.60;;
2706;SDS011;7819;48.046;7.642;2022-11-21T16:02:57;1.73;;;1.40;;
2706;SDS011;7819;48.046;7.642;2022-11-21T16:05:22;2.93;;;1.60;;
2706;SDS011;7819;48.046;7.642;2022-11-21T16:07:47;5.83;;;1.80;;
2706;SDS011;7819;48.046;7.642;2022-11-21T16:10:13;3.40;;;1.60;;
2706;SDS011;7819;48.046;7.642;2022-11-21T16:12:38;4.63;;;2.17;;
2706;SDS011;7819;48.046;7.642;2022-11-21T16:15:03;3.37;;;2.07;;
2706;SDS011;7819;48.046;7.642;2022-11-21T16:17:28;2.70;;;2.00;;
2706;SDS011;7819;48.046;7.642;2022-11-21T16:19:54;2.77;;;1.50;;
2706;SDS011;7819;48.046;7.642;2022-11-21T16:22:19;5.83;;;3.20;;
2706;SDS011;7819;48.046;7.642;2022-11-21T16:24:44;7.67;;;4.50;;
2706;SDS011;7819;48.046;7.642;2022-11-21T16:27:09;7.93;;;3.70;;
2706;SDS011;7819;48.046;7.642;2022-11-21T16:29:34;8.20;;;5.80;;
2706;SDS011;7819;48.046;7.642;2022-11-21T16:31:59;8.80;;;6.97;;
2706;SDS011;7819;48.046;7.642;2022-11-21T16:34:25;10.73;;;5.70;;
2706;SDS011;7819;48.046;7.642;2022-11-21T16:36:50;6.73;;;4.50;;
2706;SDS011;7819;48.046;7.642;2022-11-21T16:39:16;5.63;;;4.60;;
2706;SDS011;7819;48.046;7.642;2022-11-21T16:41:41;6.00;;;4.97;;
2706;SDS011;7819;48.046;7.642;2022-11-21T16:44:12;5.80;;;5.00;;
2706;SDS011;7819;48.046;7.642;2022-11-21T16:46:41;7.03;;;6.00;;
2706;SDS011;7819;48.046;7.642;2022-11-21T16:49:07;9.43;;;7.80;;
2706;SDS011;7819;48.046;7.642;2022-11-21T16:51:33;3.83;;;2.97;;